Terminal Aerodrome Forecast
Issued by NWS Sioux Falls, SD

Home | Current Version | Previous Version | Text Only | Print | Product List | Glossary On
Versions: 1 2 3 4 5 6 7 8 9 10 11 12 13 14 15 16
000
FTUS43 KFSD 040520
TAFHON
TAF
KHON 040520Z 0406/0506 16004KT 6SM FU SKC
      TEMPO 0407/0411 4SM FU
     FM041300 16008KT P6SM SKC
     FM041700 17013KT P6SM SCT040
     FM050100 15011KT P6SM SCT040 BKN120=

USA.gov is the U.S. government's official web portal to all federal, state and local government web resources and services.